createdAt,value
2018-01-26T00:01:52.076Z,89.24
2018-01-26T00:04:20.417Z,89.27
2018-01-26T00:06:48.734Z,89.02
2018-01-26T00:09:17.078Z,89.07
2018-01-26T00:11:45.393Z,89.03
2018-01-26T00:14:13.741Z,88.93
2018-01-26T00:16:42.069Z,89.22
2018-01-26T00:19:10.401Z,88.82
2018-01-26T00:21:38.717Z,89.13
2018-01-26T00:24:07.049Z,89.50
2018-01-26T00:26:35.365Z,89.23
2018-01-26T00:29:03.712Z,89.34
2018-01-26T00:31:32.025Z,89.13
2018-01-26T00:34:00.364Z,88.91
2018-01-26T00:36:28.689Z,88.88
2018-01-26T00:38:57.029Z,88.88
2018-01-26T00:41:25.350Z,88.85
2018-01-26T00:43:53.690Z,89.04
2018-01-26T00:46:22.009Z,88.81
2018-01-26T00:48:50.350Z,88.82
2018-01-26T00:51:18.723Z,88.64
2018-01-26T00:53:47.042Z,88.48
2018-01-26T00:56:15.362Z,88.38
2018-01-26T00:58:43.696Z,88.27
2018-01-26T01:01:12.022Z,87.99
2018-01-26T01:03:40.365Z,87.88
2018-01-26T01:06:08.690Z,87.98
2018-01-26T01:08:37.025Z,88.29
2018-01-26T01:11:05.349Z,88.51
2018-01-26T01:13:33.686Z,88.93
2018-01-26T01:16:02.015Z,88.95
2018-01-26T01:18:30.358Z,89.29
2018-01-26T01:20:58.682Z,89.26
2018-01-26T01:23:27.016Z,88.90
2018-01-26T01:25:55.332Z,88.80
2018-01-26T01:28:23.678Z,88.76
2018-01-26T01:30:52.001Z,88.57
2018-01-26T01:33:20.329Z,88.34
2018-01-26T01:35:48.681Z,88.39
2018-01-26T01:38:16.997Z,88.15
2018-01-26T01:40:45.343Z,88.91
2018-01-26T01:43:13.666Z,89.58
2018-01-26T01:45:42.014Z,90.20
2018-01-26T01:48:10.341Z,89.86
2018-01-26T01:50:38.681Z,90.14
2018-01-26T01:53:07.009Z,90.60
2018-01-26T01:55:35.358Z,90.88
2018-01-26T01:58:03.681Z,91.52
2018-01-26T02:00:32.024Z,91.95
2018-01-26T02:03:00.349Z,92.28
2018-01-26T02:05:28.698Z,92.65
2018-01-26T02:07:57.023Z,92.57
2018-01-26T02:10:25.365Z,92.57
2018-01-26T02:12:53.689Z,92.68
2018-01-26T02:15:22.033Z,92.73
2018-01-26T02:17:50.359Z,92.53
2018-01-26T02:20:18.704Z,92.45
2018-01-26T02:22:47.033Z,92.61
2018-01-26T02:25:33.062Z,92.89
2018-01-26T02:28:07.228Z,92.84
2018-01-26T02:30:35.584Z,93.06
2018-01-26T02:33:03.905Z,93.01
2018-01-26T02:35:32.249Z,92.75
2018-01-26T02:38:00.581Z,93.14
2018-01-26T02:40:28.925Z,93.34
2018-01-26T02:42:58.087Z,92.91
2018-01-26T02:45:26.425Z,92.69
2018-01-26T02:47:54.759Z,92.54
2018-01-26T02:50:23.105Z,92.72
2018-01-26T02:52:51.437Z,93.00
2018-01-26T02:55:19.811Z,93.27
2018-01-26T02:57:48.107Z,93.67
2018-01-26T03:00:16.453Z,93.56
2018-01-26T03:02:44.777Z,93.27
2018-01-26T03:05:13.121Z,92.89
2018-01-26T03:07:41.445Z,92.65
2018-01-26T03:10:09.794Z,92.44
2018-01-26T03:12:38.125Z,92.83
2018-01-26T03:15:06.470Z,92.92
2018-01-26T03:17:34.808Z,92.76
2018-01-26T03:20:03.141Z,92.68
2018-01-26T03:22:31.466Z,92.61
2018-01-26T03:24:59.813Z,92.56
2018-01-26T03:27:28.133Z,92.70
2018-01-26T03:29:56.477Z,92.78
2018-01-26T03:32:24.801Z,92.45
2018-01-26T03:34:53.145Z,92.18
2018-01-26T03:37:21.469Z,91.62
2018-01-26T03:39:49.818Z,91.19
2018-01-26T03:42:18.153Z,90.85
2018-01-26T03:44:46.485Z,90.47
2018-01-26T03:47:14.829Z,90.13
2018-01-26T03:49:43.154Z,89.84
2018-01-26T03:52:11.499Z,89.52
2018-01-26T03:54:39.825Z,89.34
2018-01-26T03:57:08.173Z,89.47
2018-01-26T03:59:36.490Z,89.31
2018-01-26T04:02:04.833Z,89.39
2018-01-26T04:04:33.158Z,89.59
2018-01-26T04:07:01.493Z,89.55
2018-01-26T04:09:29.823Z,89.51
2018-01-26T04:11:58.165Z,89.20
2018-01-26T04:14:26.489Z,89.20
2018-01-26T04:16:54.837Z,89.16
2018-01-26T04:19:23.169Z,89.11
2018-01-26T04:21:51.539Z,89.01
2018-01-26T04:24:19.833Z,89.12
2018-01-26T04:26:48.181Z,89.07
2018-01-26T04:29:16.505Z,88.91
2018-01-26T04:31:44.853Z,88.81
2018-01-26T04:34:13.177Z,88.77
2018-01-26T04:36:41.521Z,88.60
2018-01-26T04:39:09.845Z,88.45
2018-01-26T04:41:38.199Z,88.36
2018-01-26T04:44:06.512Z,88.34
2018-01-26T04:46:34.857Z,88.27
2018-01-26T04:49:03.177Z,88.19
2018-01-26T04:51:31.517Z,88.13
2018-01-26T04:53:59.838Z,88.11
2018-01-26T04:56:28.181Z,88.14
2018-01-26T04:58:56.605Z,88.13
2018-01-26T05:01:25.025Z,88.10
2018-01-26T05:03:53.345Z,88.27
2018-01-26T05:06:21.693Z,88.51
2018-01-26T05:08:50.009Z,88.56
2018-01-26T05:11:18.357Z,88.60
2018-01-26T05:13:46.673Z,88.79
2018-01-26T05:16:15.026Z,88.71
2018-01-26T05:18:43.357Z,88.49
2018-01-26T05:21:11.706Z,88.65
2018-01-26T05:23:40.029Z,88.77
2018-01-26T05:26:08.378Z,88.92
2018-01-26T05:28:36.705Z,88.80
2018-01-26T05:31:05.053Z,88.85
2018-01-26T05:33:33.381Z,89.34
2018-01-26T05:36:01.735Z,89.36
2018-01-26T05:38:30.058Z,89.94
2018-01-26T05:40:58.385Z,90.09
2018-01-26T05:43:26.734Z,89.71
2018-01-26T05:45:55.057Z,89.26
2018-01-26T05:48:23.445Z,89.00
2018-01-26T05:50:51.773Z,88.98
2018-01-26T05:53:20.165Z,89.20
2018-01-26T05:55:49.389Z,89.39
2018-01-26T05:58:17.742Z,89.39
2018-01-26T06:00:46.097Z,89.97
2018-01-26T06:03:28.948Z,89.74
2018-01-26T06:05:59.493Z,90.44
2018-01-26T06:08:27.850Z,90.73
2018-01-26T06:10:56.171Z,90.89
2018-01-26T06:13:24.521Z,90.76
2018-01-26T06:15:52.854Z,90.62
2018-01-26T06:18:21.196Z,90.63
2018-01-26T06:20:49.521Z,91.30
2018-01-26T06:23:18.890Z,91.61
2018-01-26T06:25:47.250Z,91.76
2018-01-26T06:28:15.666Z,91.81
2018-01-26T06:30:43.993Z,91.55
2018-01-26T06:33:12.342Z,91.53
2018-01-26T06:35:40.670Z,91.37
2018-01-26T06:38:09.023Z,91.08
2018-01-26T06:40:37.350Z,91.10
2018-01-26T06:43:06.477Z,91.96
2018-01-26T06:45:34.810Z,93.02
2018-01-26T06:48:03.163Z,93.28
2018-01-26T06:50:31.492Z,93.14
2018-01-26T06:52:59.829Z,92.98
2018-01-26T06:55:28.182Z,92.90
2018-01-26T06:57:56.526Z,92.56
2018-01-26T07:00:24.849Z,92.32
2018-01-26T07:02:54.205Z,92.14
2018-01-26T07:05:22.535Z,91.94
2018-01-26T07:07:50.881Z,92.02
2018-01-26T07:10:19.209Z,91.96
2018-01-26T07:12:47.570Z,91.91
2018-01-26T07:15:16.049Z,91.78
2018-01-26T07:17:44.405Z,91.89
2018-01-26T07:20:12.733Z,92.03
2018-01-26T07:22:41.082Z,91.96
2018-01-26T07:25:09.418Z,92.04
2018-01-26T07:27:37.745Z,92.57
2018-01-26T07:30:06.098Z,92.76
2018-01-26T07:32:34.431Z,92.76
2018-01-26T07:35:02.773Z,93.06
2018-01-26T07:37:31.105Z,93.05
2018-01-26T07:39:59.449Z,93.03
2018-01-26T07:42:27.777Z,92.78
2018-01-26T07:44:56.198Z,92.77
2018-01-26T07:47:24.505Z,92.67
2018-01-26T07:49:52.881Z,92.63
2018-01-26T07:52:21.205Z,92.70
2018-01-26T07:54:49.553Z,92.38
2018-01-26T07:57:17.885Z,92.10
2018-01-26T07:59:46.244Z,91.82
2018-01-26T08:02:14.561Z,92.00
2018-01-26T08:04:42.944Z,92.20
2018-01-26T08:07:11.274Z,92.36
2018-01-26T08:09:39.625Z,92.54
2018-01-26T08:12:07.972Z,92.85
2018-01-26T08:14:36.352Z,92.68
2018-01-26T08:17:04.681Z,93.66
2018-01-26T08:19:33.036Z,93.08
2018-01-26T08:22:01.360Z,92.52
2018-01-26T08:24:29.710Z,92.56
2018-01-26T08:26:58.037Z,92.95
2018-01-26T08:29:26.402Z,92.72
2018-01-26T08:31:54.725Z,92.74
2018-01-26T08:34:23.078Z,92.58
2018-01-26T08:36:51.401Z,93.00
2018-01-26T08:39:19.749Z,93.26
2018-01-26T08:41:48.321Z,93.34
2018-01-26T08:44:16.665Z,93.27
2018-01-26T08:46:44.988Z,93.11
2018-01-26T08:49:13.334Z,93.04
2018-01-26T08:51:41.665Z,93.19
2018-01-26T08:54:10.059Z,93.11
2018-01-26T08:56:38.825Z,93.04
2018-01-26T08:59:07.173Z,92.96
2018-01-26T09:01:35.565Z,93.39
2018-01-26T09:04:03.941Z,93.34
2018-01-26T09:06:32.317Z,93.40
2018-01-26T09:09:00.660Z,93.18
2018-01-26T09:11:28.990Z,93.48
2018-01-26T09:13:57.337Z,93.41
2018-01-26T09:16:26.456Z,93.18
2018-01-26T09:18:54.801Z,92.91
2018-01-26T09:21:23.129Z,93.27
2018-01-26T09:23:51.477Z,93.31
2018-01-26T09:26:19.805Z,93.35
2018-01-26T09:28:48.128Z,93.40
2018-01-26T09:31:16.477Z,93.50
2018-01-26T09:33:44.806Z,93.16
2018-01-26T09:36:14.217Z,93.54
2018-01-26T09:38:42.542Z,93.68
2018-01-26T09:41:10.889Z,93.12
2018-01-26T09:43:39.217Z,92.04
2018-01-26T09:46:07.576Z,91.30
2018-01-26T09:48:35.918Z,90.94
2018-01-26T09:51:04.249Z,90.80
2018-01-26T09:53:32.581Z,91.07
2018-01-26T09:56:01.121Z,91.37
2018-01-26T09:58:29.453Z,91.54
2018-01-26T10:00:57.796Z,90.91
2018-01-26T10:03:26.131Z,90.68
2018-01-26T10:05:54.474Z,90.40
2018-01-26T10:08:22.812Z,90.75
2018-01-26T10:10:51.153Z,90.68
2018-01-26T10:13:19.477Z,90.90
2018-01-26T10:15:48.604Z,91.62
2018-01-26T10:18:16.932Z,91.79
2018-01-26T10:20:45.282Z,91.55
2018-01-26T10:23:13.609Z,91.04
2018-01-26T10:25:41.966Z,90.52
2018-01-26T10:28:10.293Z,90.88
2018-01-26T10:30:38.646Z,90.92
2018-01-26T10:33:06.978Z,90.93
2018-01-26T10:35:35.466Z,91.18
2018-01-26T10:38:03.789Z,90.35
2018-01-26T10:40:32.138Z,90.14
2018-01-26T10:43:00.466Z,90.04
2018-01-26T10:45:28.818Z,89.93
2018-01-26T10:47:57.150Z,89.82
2018-01-26T10:50:25.497Z,89.74
2018-01-26T10:52:53.821Z,90.39
2018-01-26T10:55:23.153Z,91.24
2018-01-26T10:57:51.434Z,90.86
2018-01-26T11:00:19.778Z,90.37
2018-01-26T11:02:48.110Z,89.67
2018-01-26T11:05:16.462Z,91.45
2018-01-26T11:07:44.793Z,89.77
2018-01-26T11:10:13.150Z,86.88
2018-01-26T11:12:41.477Z,86.79
2018-01-26T11:15:10.728Z,86.66
2018-01-26T11:17:39.057Z,87.06
2018-01-26T11:20:07.407Z,87.41
2018-01-26T11:22:35.729Z,87.89
2018-01-26T11:25:04.124Z,87.73
2018-01-26T11:27:32.465Z,87.78
2018-01-26T11:30:00.837Z,88.23
2018-01-26T11:32:29.169Z,88.36
2018-01-26T11:34:58.490Z,88.80
2018-01-26T11:37:26.841Z,88.98
2018-01-26T11:39:55.169Z,88.78
2018-01-26T11:42:23.592Z,89.39
2018-01-26T11:44:51.901Z,89.57
2018-01-26T11:47:20.254Z,88.41
2018-01-26T11:49:48.585Z,89.07
2018-01-26T11:52:16.938Z,88.97
2018-01-26T11:54:45.269Z,89.11
2018-01-26T11:57:13.622Z,89.28
2018-01-26T11:59:41.946Z,89.28
2018-01-26T12:02:10.297Z,87.95
2018-01-26T12:04:38.620Z,88.03
2018-01-26T12:07:06.975Z,87.45
2018-01-26T12:09:35.297Z,87.11
2018-01-26T12:12:03.646Z,86.88
2018-01-26T12:14:33.019Z,86.32
2018-01-26T12:17:01.371Z,86.22
2018-01-26T12:19:29.719Z,85.96
2018-01-26T12:21:58.082Z,86.26
2018-01-26T12:24:26.410Z,86.55
2018-01-26T12:26:55.553Z,85.89
2018-01-26T12:29:23.875Z,84.13
2018-01-26T12:31:52.227Z,84.29
2018-01-26T12:34:20.646Z,84.04
2018-01-26T12:36:49.789Z,83.82
2018-01-26T12:39:18.121Z,82.87
2018-01-26T12:41:46.478Z,82.51
2018-01-26T12:44:15.885Z,83.36
2018-01-26T12:46:44.211Z,82.07
2018-01-26T12:49:12.588Z,81.21
2018-01-26T12:51:40.930Z,80.74
2018-01-26T12:54:09.258Z,81.53
2018-01-26T12:56:37.602Z,81.70
2018-01-26T12:59:06.414Z,81.87
2018-01-26T13:01:34.956Z,81.92
2018-01-26T13:04:03.293Z,82.46
2018-01-26T13:06:31.639Z,82.75
2018-01-26T13:08:59.970Z,82.81
2018-01-26T13:11:28.318Z,82.96
2018-01-26T13:13:56.641Z,82.26
2018-01-26T13:16:24.988Z,83.35
2018-01-26T13:18:53.309Z,82.91
2018-01-26T13:21:21.743Z,84.32
2018-01-26T13:23:50.061Z,82.94
2018-01-26T13:26:18.429Z,82.89
2018-01-26T13:28:46.753Z,82.59
2018-01-26T13:31:15.097Z,81.72
2018-01-26T13:33:43.429Z,82.55
2018-01-26T13:36:11.777Z,82.39
2018-01-26T13:38:40.122Z,82.20
2018-01-26T13:41:08.448Z,82.09
2018-01-26T13:43:36.805Z,81.26
2018-01-26T13:46:06.082Z,79.85
2018-01-26T13:48:34.432Z,79.94
2018-01-26T13:51:02.753Z,79.89
2018-01-26T13:53:31.204Z,79.93
2018-01-26T13:56:00.548Z,80.06
2018-01-26T13:58:28.935Z,79.09
2018-01-26T14:00:57.346Z,79.41
2018-01-26T14:03:25.742Z,79.20
2018-01-26T14:05:54.118Z,79.15
2018-01-26T14:08:22.469Z,79.22
2018-01-26T14:10:50.797Z,79.62
2018-01-26T14:13:19.188Z,81.17
2018-01-26T14:15:48.661Z,79.88
2018-01-26T14:18:17.061Z,79.02
2018-01-26T14:20:45.461Z,79.20
2018-01-26T14:23:13.830Z,79.93
2018-01-26T14:25:42.150Z,80.51
2018-01-26T14:28:10.537Z,79.81
2018-01-26T14:30:38.865Z,79.94
2018-01-26T14:33:07.278Z,80.06
2018-01-26T14:35:35.829Z,80.24
2018-01-26T14:38:06.797Z,80.38
2018-01-26T14:40:35.400Z,80.74
2018-01-26T14:43:03.738Z,80.72
2018-01-26T14:45:32.066Z,80.52
2018-01-26T14:48:00.416Z,80.54
2018-01-26T14:50:28.742Z,80.63
2018-01-26T14:52:57.177Z,80.67
2018-01-26T14:55:25.625Z,81.40
2018-01-26T14:57:53.973Z,80.86
2018-01-26T15:00:22.305Z,80.65
2018-01-26T15:02:50.649Z,81.24
2018-01-26T15:05:18.998Z,81.27
2018-01-26T15:07:47.437Z,80.63
2018-01-26T15:10:15.766Z,80.52
2018-01-26T15:12:44.193Z,80.77
2018-01-26T15:15:13.329Z,80.77
2018-01-26T15:17:41.673Z,80.72
2018-01-26T15:20:10.006Z,80.50
2018-01-26T15:22:38.421Z,80.47
2018-01-26T15:25:06.799Z,80.73
2018-01-26T15:27:35.154Z,80.82
2018-01-26T15:30:03.481Z,80.89
2018-01-26T15:32:31.834Z,81.19
2018-01-26T15:35:00.157Z,81.23
2018-01-26T15:37:28.510Z,81.01
2018-01-26T15:39:56.842Z,81.05
2018-01-26T15:42:25.198Z,80.87
2018-01-26T15:44:53.613Z,80.84
2018-01-26T15:47:21.988Z,81.20
2018-01-26T15:49:50.349Z,81.26
2018-01-26T15:52:18.742Z,81.68
2018-01-26T15:54:47.088Z,81.78
2018-01-26T15:57:15.413Z,81.93
2018-01-26T15:59:43.760Z,82.10
2018-01-26T16:02:12.089Z,82.09
2018-01-26T16:04:40.432Z,82.07
2018-01-26T16:07:08.761Z,82.11
2018-01-26T16:09:37.105Z,82.29
2018-01-26T16:12:05.437Z,82.35
2018-01-26T16:14:33.790Z,82.37
2018-01-26T16:17:02.121Z,82.31
2018-01-26T16:19:30.469Z,82.40
2018-01-26T16:21:58.797Z,82.48
2018-01-26T16:24:27.143Z,82.65
2018-01-26T16:26:55.464Z,82.99
2018-01-26T16:29:23.808Z,83.01
2018-01-26T16:31:52.138Z,82.73
2018-01-26T16:34:20.509Z,82.72
2018-01-26T16:36:48.840Z,82.90
2018-01-26T16:39:17.578Z,83.39
2018-01-26T16:41:45.889Z,83.34
2018-01-26T16:44:14.235Z,83.88
2018-01-26T16:46:42.561Z,83.63
2018-01-26T16:49:10.914Z,83.56
2018-01-26T16:51:39.333Z,83.46
2018-01-26T16:54:07.657Z,83.38
2018-01-26T16:56:35.982Z,83.50
2018-01-26T16:59:04.334Z,83.52
2018-01-26T17:01:32.658Z,83.64
2018-01-26T17:04:01.017Z,83.56
2018-01-26T17:06:29.352Z,83.51
2018-01-26T17:08:57.698Z,83.47
2018-01-26T17:11:26.020Z,84.55
2018-01-26T17:13:54.402Z,85.04
2018-01-26T17:16:22.697Z,84.59
2018-01-26T17:18:51.049Z,84.62
2018-01-26T17:21:19.374Z,84.59
2018-01-26T17:23:47.722Z,84.76
2018-01-26T17:26:16.937Z,84.85
2018-01-26T17:28:45.284Z,84.70
2018-01-26T17:31:13.609Z,84.71
2018-01-26T17:33:41.957Z,84.72
2018-01-26T17:36:10.413Z,84.77
2018-01-26T17:38:39.722Z,85.08
2018-01-26T17:41:08.050Z,85.09
2018-01-26T17:43:36.397Z,86.25
2018-01-26T17:46:04.797Z,85.96
2018-01-26T17:48:33.125Z,85.65
2018-01-26T17:51:01.469Z,86.04
2018-01-26T17:53:29.793Z,85.71
2018-01-26T17:55:58.213Z,85.46
2018-01-26T17:58:26.589Z,85.50
2018-01-26T18:00:54.937Z,85.62
2018-01-26T18:03:23.260Z,85.88
2018-01-26T18:05:51.605Z,85.37
2018-01-26T18:08:19.938Z,85.44
2018-01-26T18:10:48.282Z,85.68
2018-01-26T18:13:16.610Z,85.97
2018-01-26T18:15:44.961Z,85.79
2018-01-26T18:18:13.285Z,85.87
2018-01-26T18:20:41.825Z,86.24
2018-01-26T18:23:10.256Z,85.99
2018-01-26T18:25:38.614Z,85.84
2018-01-26T18:28:06.941Z,86.00
2018-01-26T18:30:35.395Z,86.14
2018-01-26T18:33:03.769Z,86.51
2018-01-26T18:35:32.142Z,86.94
2018-01-26T18:38:00.470Z,86.83
2018-01-26T18:40:28.835Z,86.48
2018-01-26T18:42:57.169Z,86.73
2018-01-26T18:45:25.549Z,87.02
2018-01-26T18:47:53.929Z,87.20
2018-01-26T18:50:22.276Z,87.39
2018-01-26T18:52:50.625Z,87.19
2018-01-26T18:55:18.977Z,86.99
2018-01-26T18:57:47.329Z,86.62
2018-01-26T19:00:15.676Z,86.49
2018-01-26T19:02:44.106Z,86.35
2018-01-26T19:05:12.453Z,86.44
2018-01-26T19:07:40.781Z,86.51
2018-01-26T19:10:09.217Z,86.35
2018-01-26T19:12:37.548Z,86.35
2018-01-26T19:15:05.901Z,86.69
2018-01-26T19:17:34.245Z,86.38
2018-01-26T19:20:02.709Z,86.16
2018-01-26T19:22:31.029Z,86.30
2018-01-26T19:24:59.386Z,86.33
2018-01-26T19:27:27.717Z,86.32
2018-01-26T19:29:56.072Z,86.69
2018-01-26T19:32:24.533Z,86.93
2018-01-26T19:34:52.902Z,87.35
2018-01-26T19:37:21.261Z,87.62
2018-01-26T19:39:49.617Z,89.88
2018-01-26T19:42:18.017Z,93.05
2018-01-26T19:44:46.365Z,91.49
2018-01-26T19:47:14.693Z,88.94
2018-01-26T19:49:43.030Z,87.98
2018-01-26T19:52:11.381Z,87.13
2018-01-26T19:54:39.701Z,86.36
2018-01-26T19:57:08.050Z,86.18
2018-01-26T19:59:36.381Z,86.23
2018-01-26T20:02:04.733Z,86.30
2018-01-26T20:04:38.713Z,86.05
2018-01-26T20:07:24.689Z,86.06
2018-01-26T20:09:53.017Z,86.44
2018-01-26T20:12:21.373Z,86.43
2018-01-26T20:14:49.700Z,86.33
2018-01-26T20:17:18.041Z,86.66
2018-01-26T20:19:46.368Z,86.83
2018-01-26T20:22:14.716Z,87.03
2018-01-26T20:24:43.045Z,87.24
2018-01-26T20:27:11.430Z,87.28
2018-01-26T20:29:39.774Z,86.91
2018-01-26T20:32:08.129Z,87.20
2018-01-26T20:34:36.461Z,87.74
2018-01-26T20:37:04.814Z,87.06
2018-01-26T20:39:33.233Z,87.30
2018-01-26T20:42:01.658Z,87.11
2018-01-26T20:44:29.981Z,86.71
2018-01-26T20:46:58.329Z,86.71
2018-01-26T20:49:26.737Z,86.83
2018-01-26T20:51:55.262Z,86.96
2018-01-26T20:54:23.576Z,86.58
2018-01-26T20:56:51.929Z,86.40
2018-01-26T20:59:20.252Z,86.16
2018-01-26T21:01:48.706Z,86.12
2018-01-26T21:04:17.097Z,86.08
2018-01-26T21:06:45.478Z,86.14
2018-01-26T21:09:13.801Z,86.18
2018-01-26T21:11:42.226Z,86.38
2018-01-26T21:14:10.553Z,86.53
2018-01-26T21:16:38.901Z,86.62
2018-01-26T21:19:07.249Z,86.73
2018-01-26T21:21:36.122Z,86.75
2018-01-26T21:24:04.517Z,86.80
2018-01-26T21:26:33.822Z,86.85
2018-01-26T21:29:02.197Z,86.77
2018-01-26T21:31:30.545Z,87.04
2018-01-26T21:33:58.884Z,86.86
2018-01-26T21:36:27.229Z,86.81
2018-01-26T21:38:55.553Z,86.75
2018-01-26T21:41:23.977Z,86.85
2018-01-26T21:43:52.301Z,87.32
2018-01-26T21:46:20.729Z,87.50
2018-01-26T21:48:49.110Z,87.25
2018-01-26T21:51:17.462Z,87.18
2018-01-26T21:53:45.870Z,87.32
2018-01-26T21:56:15.145Z,87.33
2018-01-26T21:58:43.469Z,87.31
2018-01-26T22:01:11.816Z,88.22
2018-01-26T22:03:40.146Z,88.31
2018-01-26T22:06:14.048Z,88.28
2018-01-26T22:08:42.376Z,88.54
2018-01-26T22:11:10.726Z,88.80
2018-01-26T22:13:39.058Z,88.78
2018-01-26T22:16:07.407Z,88.91
2018-01-26T22:18:35.749Z,88.80
2018-01-26T22:21:04.081Z,88.90
2018-01-26T22:23:32.528Z,89.80
2018-01-26T22:26:02.505Z,89.45
2018-01-26T22:28:30.858Z,89.10
2018-01-26T22:30:59.181Z,88.70
2018-01-26T22:33:27.586Z,88.65
2018-01-26T22:35:55.909Z,88.22
2018-01-26T22:38:24.261Z,88.33
2018-01-26T22:40:52.605Z,88.39
2018-01-26T22:43:20.981Z,88.56
2018-01-26T22:45:49.361Z,89.22
2018-01-26T22:48:17.737Z,89.75
2018-01-26T22:50:46.073Z,89.97
2018-01-26T22:53:14.418Z,89.61
2018-01-26T22:55:42.741Z,90.11
2018-01-26T22:58:11.146Z,90.44
2018-01-26T23:00:39.517Z,90.87
2018-01-26T23:03:07.871Z,90.81
2018-01-26T23:05:36.825Z,91.18
2018-01-26T23:08:05.174Z,91.31
2018-01-26T23:10:33.660Z,91.11
2018-01-26T23:13:02.002Z,90.74
2018-01-26T23:15:30.330Z,90.38
2018-01-26T23:17:58.673Z,89.90
2018-01-26T23:20:27.002Z,89.89
2018-01-26T23:22:55.350Z,89.76
2018-01-26T23:25:23.681Z,89.68
2018-01-26T23:27:52.029Z,90.24
2018-01-26T23:30:20.353Z,90.11
2018-01-26T23:32:48.705Z,90.04
2018-01-26T23:35:17.109Z,90.01
2018-01-26T23:37:45.486Z,89.79
2018-01-26T23:40:13.861Z,89.86
2018-01-26T23:42:42.344Z,89.29
2018-01-26T23:45:10.717Z,89.48
2018-01-26T23:47:39.093Z,89.32
2018-01-26T23:50:07.493Z,89.54
2018-01-26T23:52:35.949Z,89.94
2018-01-26T23:55:04.330Z,89.75
2018-01-26T23:57:32.679Z,89.58
